createdAt,value
2018-12-13T00:01:38.373Z,34.15
2018-12-13T00:04:08.188Z,34.27
2018-12-13T00:06:36.784Z,35.55
2018-12-13T00:09:06.746Z,32.40
2018-12-13T00:11:35.356Z,32.15
2018-12-13T00:14:03.940Z,31.52
2018-12-13T00:16:32.823Z,32.38
2018-12-13T00:19:02.120Z,30.65
2018-12-13T00:21:31.573Z,31.10
2018-12-13T00:24:00.287Z,31.00
2018-12-13T00:26:28.914Z,31.33
2018-12-13T00:28:57.829Z,30.85
2018-12-13T00:31:26.340Z,30.12
2018-12-13T00:33:54.857Z,29.82
2018-12-13T00:36:23.924Z,29.90
2018-12-13T00:38:52.571Z,28.95
2018-12-13T00:41:21.233Z,30.10
2018-12-13T00:43:49.728Z,30.45
2018-12-13T00:46:18.910Z,30.70
2018-12-13T00:48:47.400Z,30.23
2018-12-13T00:51:15.924Z,30.72
2018-12-13T00:53:46.631Z,29.70
2018-12-13T00:56:15.317Z,30.00
2018-12-13T00:58:43.886Z,29.87
2018-12-13T01:01:12.482Z,29.18
2018-12-13T01:03:42.500Z,30.43
2018-12-13T01:06:11.199Z,30.80
2018-12-13T01:08:39.727Z,29.63
2018-12-13T01:11:09.141Z,30.02
2018-12-13T01:13:39.211Z,32.40
2018-12-13T01:16:09.933Z,32.05
2018-12-13T01:18:38.655Z,31.97
2018-12-13T01:21:08.300Z,31.97
2018-12-13T01:23:37.406Z,32.15
2018-12-13T01:26:05.954Z,31.40
2018-12-13T01:28:35.439Z,29.32
2018-12-13T01:31:03.908Z,29.15
2018-12-13T01:33:32.427Z,29.60
2018-12-13T01:36:01.750Z,28.83
2018-12-13T01:38:30.311Z,28.45
2018-12-13T01:40:58.903Z,28.90
2018-12-13T01:43:27.470Z,30.02
2018-12-13T01:45:55.965Z,31.23
2018-12-13T01:48:25.430Z,30.37
2018-12-13T01:50:54.141Z,31.55
2018-12-13T01:53:22.913Z,29.80
2018-12-13T01:55:51.961Z,31.05
2018-12-13T01:58:20.577Z,31.75
2018-12-13T02:00:49.176Z,31.93
2018-12-13T02:03:18.576Z,30.17
2018-12-13T02:05:47.221Z,31.27
2018-12-13T02:08:16.467Z,32.73
2018-12-13T02:10:44.958Z,33.00
2018-12-13T02:13:14.001Z,33.95
2018-12-13T02:15:42.625Z,34.55
2018-12-13T02:18:11.137Z,35.85
2018-12-13T02:20:40.413Z,34.35
2018-12-13T02:23:08.985Z,34.45
2018-12-13T02:25:37.582Z,34.23
2018-12-13T02:28:06.496Z,35.00
2018-12-13T02:30:35.174Z,35.90
2018-12-13T02:33:03.675Z,33.05
2018-12-13T02:35:32.697Z,33.35
2018-12-13T02:38:02.419Z,34.78
2018-12-13T02:40:30.994Z,34.53
2018-12-13T02:42:59.602Z,34.45
2018-12-13T02:45:28.216Z,32.50
2018-12-13T02:47:56.685Z,34.92
2018-12-13T02:50:25.210Z,33.88
2018-12-13T02:52:53.800Z,35.90
2018-12-13T02:55:22.303Z,34.33
2018-12-13T02:57:50.855Z,35.23
2018-12-13T03:00:19.440Z,34.33
2018-12-13T03:02:48.110Z,35.10
2018-12-13T03:05:18.182Z,34.67
2018-12-13T03:07:46.746Z,34.88
2018-12-13T03:10:15.348Z,35.63
2018-12-13T03:12:43.955Z,33.58
2018-12-13T03:15:12.383Z,33.83
2018-12-13T03:17:41.060Z,33.42
2018-12-13T03:20:09.613Z,34.48
2018-12-13T03:22:40.357Z,34.50
2018-12-13T03:25:08.957Z,35.55
2018-12-13T03:27:37.600Z,35.68
2018-12-13T03:30:06.345Z,35.98
2018-12-13T03:32:34.911Z,34.92
2018-12-13T03:35:03.762Z,35.40
2018-12-13T03:37:32.405Z,35.35
2018-12-13T03:40:02.294Z,36.48
2018-12-13T03:42:30.928Z,37.50
2018-12-13T03:44:59.574Z,36.70
2018-12-13T03:47:28.135Z,35.23
2018-12-13T03:49:56.753Z,36.13
2018-12-13T03:52:26.063Z,36.73
2018-12-13T03:54:54.622Z,37.65
2018-12-13T03:57:24.154Z,36.68
2018-12-13T03:59:52.861Z,37.88
2018-12-13T04:02:21.309Z,37.38
2018-12-13T04:04:49.876Z,37.90
2018-12-13T04:07:18.467Z,38.48
2018-12-13T04:09:47.045Z,36.65
2018-12-13T04:12:15.651Z,37.38
2018-12-13T04:14:45.374Z,38.30
2018-12-13T04:17:14.023Z,36.85
2018-12-13T04:19:42.736Z,37.35
2018-12-13T04:22:11.387Z,39.20
2018-12-13T04:24:39.990Z,38.75
2018-12-13T04:27:08.679Z,35.90
2018-12-13T04:29:37.116Z,36.50
2018-12-13T04:32:06.013Z,37.03
2018-12-13T04:34:36.252Z,36.65
2018-12-13T04:37:04.840Z,36.15
2018-12-13T04:39:33.429Z,36.38
2018-12-13T04:42:03.290Z,36.58
2018-12-13T04:44:31.885Z,37.38
2018-12-13T04:47:00.485Z,36.42
2018-12-13T04:49:30.340Z,35.55
2018-12-13T04:51:59.001Z,36.35
2018-12-13T04:54:27.567Z,34.83
2018-12-13T04:56:56.143Z,34.70
2018-12-13T04:59:25.874Z,33.98
2018-12-13T05:01:54.468Z,36.23
2018-12-13T05:04:23.144Z,35.68
2018-12-13T05:06:52.007Z,36.00
2018-12-13T05:09:20.525Z,36.25
2018-12-13T05:11:50.519Z,38.08
2018-12-13T05:14:19.286Z,38.35
2018-12-13T05:16:49.040Z,39.13
2018-12-13T05:19:17.559Z,37.78
2018-12-13T05:21:46.182Z,37.08
2018-12-13T05:24:15.989Z,40.05
2018-12-13T05:26:44.574Z,37.03
2018-12-13T05:29:13.144Z,39.63
2018-12-13T05:31:41.602Z,39.10
2018-12-13T05:34:10.236Z,39.00
2018-12-13T05:36:38.595Z,37.85
2018-12-13T05:39:08.710Z,38.30
2018-12-13T05:41:38.103Z,37.93
2018-12-13T05:44:06.692Z,36.70
2018-12-13T05:46:35.277Z,38.95
2018-12-13T05:49:04.685Z,38.55
2018-12-13T05:51:34.587Z,38.38
2018-12-13T05:54:03.327Z,39.20
2018-12-13T05:56:32.860Z,38.50
2018-12-13T05:59:02.499Z,39.27
2018-12-13T06:01:32.384Z,40.03
2018-12-13T06:04:00.982Z,38.10
2018-12-13T06:06:30.880Z,38.73
2018-12-13T06:09:01.058Z,40.30
2018-12-13T06:11:30.315Z,40.12
2018-12-13T06:13:58.981Z,38.83
2018-12-13T06:16:28.737Z,40.83
2018-12-13T06:18:57.285Z,39.33
2018-12-13T06:21:26.060Z,40.15
2018-12-13T06:23:55.347Z,38.23
2018-12-13T06:26:24.747Z,39.80
2018-12-13T06:28:54.289Z,40.23
2018-12-13T06:31:23.449Z,39.23
2018-12-13T06:33:53.169Z,41.35
2018-12-13T06:36:22.701Z,40.08
2018-12-13T06:38:52.390Z,40.95
2018-12-13T06:41:21.713Z,40.50
2018-12-13T06:43:52.350Z,39.95
2018-12-13T06:46:21.662Z,40.45
2018-12-13T06:48:51.559Z,42.75
2018-12-13T06:51:21.588Z,42.17
2018-12-13T06:53:50.627Z,42.55
2018-12-13T06:56:20.154Z,40.35
2018-12-13T06:58:49.898Z,41.70
2018-12-13T07:01:19.902Z,41.02
2018-12-13T07:03:49.553Z,43.10
2018-12-13T07:06:18.802Z,40.88
2018-12-13T07:08:47.794Z,41.45
2018-12-13T07:11:17.143Z,41.10
2018-12-13T07:13:46.830Z,40.98
2018-12-13T07:16:16.315Z,41.55
2018-12-13T07:18:45.787Z,40.25
2018-12-13T07:21:15.028Z,42.93
2018-12-13T07:23:44.170Z,41.55
2018-12-13T07:26:13.597Z,41.50
2018-12-13T07:28:42.931Z,41.58
2018-12-13T07:31:12.275Z,42.20
2018-12-13T07:33:41.898Z,42.40
2018-12-13T07:36:12.009Z,41.10
2018-12-13T07:38:41.230Z,44.15
2018-12-13T07:41:10.511Z,87.82
2018-12-13T07:43:41.183Z,68.95
2018-12-13T07:46:10.682Z,136.43
2018-12-13T07:48:39.801Z,150.72
2018-12-13T07:51:08.787Z,100.85
2018-12-13T07:53:37.960Z,111.72
2018-12-13T07:56:06.858Z,92.92
2018-12-13T07:58:35.800Z,112.62
2018-12-13T08:01:05.238Z,79.58
2018-12-13T08:03:34.450Z,72.87
2018-12-13T08:06:03.303Z,66.05
2018-12-13T08:08:32.023Z,61.28
2018-12-13T08:11:02.622Z,59.38
2018-12-13T08:13:31.213Z,56.50
2018-12-13T08:15:59.785Z,52.20
2018-12-13T08:18:29.699Z,49.40
2018-12-13T08:20:58.288Z,49.98
2018-12-13T08:23:27.898Z,48.83
2018-12-13T08:25:56.531Z,48.68
2018-12-13T08:28:25.148Z,46.77
2018-12-13T08:30:54.606Z,52.10
2018-12-13T08:33:23.215Z,47.73
2018-12-13T08:35:51.771Z,46.13
2018-12-13T08:38:27.115Z,49.48
2018-12-13T08:40:53.515Z,55.48
2018-12-13T08:43:22.826Z,89.40
2018-12-13T08:45:51.367Z,66.70
2018-12-13T08:48:20.114Z,108.50
2018-12-13T08:50:49.742Z,231.00
2018-12-13T08:53:19.226Z,87.33
2018-12-13T08:55:48.803Z,98.27
2018-12-13T08:58:17.716Z,86.40
2018-12-13T09:00:47.752Z,80.35
2018-12-13T09:03:16.357Z,69.87
2018-12-13T09:05:44.894Z,66.60
2018-12-13T09:08:13.431Z,63.48
2018-12-13T09:10:43.053Z,67.08
2018-12-13T09:13:12.208Z,89.77
2018-12-13T09:15:41.753Z,103.17
2018-12-13T09:18:12.214Z,93.87
2018-12-13T09:20:41.998Z,74.22
2018-12-13T09:23:11.007Z,68.37
2018-12-13T09:25:40.686Z,61.45
2018-12-13T09:28:09.230Z,61.58
2018-12-13T09:30:37.730Z,56.53
2018-12-13T09:33:10.118Z,54.75
2018-12-13T09:35:42.209Z,58.63
2018-12-13T09:38:13.569Z,55.90
2018-12-13T09:40:44.793Z,57.67
2018-12-13T09:43:16.404Z,57.43
2018-12-13T09:45:46.015Z,55.43
2018-12-13T09:48:18.245Z,54.10
2018-12-13T09:50:49.037Z,55.35
2018-12-13T09:53:18.370Z,52.13
2018-12-13T09:55:49.472Z,51.13
2018-12-13T09:58:19.976Z,47.50
2018-12-13T10:00:49.832Z,47.48
2018-12-13T10:03:23.633Z,51.68
2018-12-13T10:05:55.691Z,48.55
2018-12-13T10:08:27.203Z,47.43
2018-12-13T10:11:01.244Z,46.35
2018-12-13T10:13:33.051Z,46.08
2018-12-13T10:16:06.331Z,45.78
2018-12-13T10:18:37.976Z,46.53
2018-12-13T10:21:07.536Z,45.63
2018-12-13T10:23:40.486Z,46.90
2018-12-13T10:26:13.801Z,46.30
2018-12-13T10:28:45.281Z,46.23
2018-12-13T10:31:15.066Z,46.68
2018-12-13T10:33:45.479Z,46.35
2018-12-13T10:36:15.917Z,44.70
2018-12-13T10:38:52.765Z,42.93
2018-12-13T10:41:23.449Z,43.58
2018-12-13T10:43:54.447Z,46.18
2018-12-13T10:46:25.426Z,43.02
2018-12-13T10:49:00.741Z,42.27
2018-12-13T10:51:30.173Z,44.23
2018-12-13T10:54:00.197Z,45.95
2018-12-13T10:56:32.128Z,42.60
2018-12-13T10:59:01.516Z,42.00
2018-12-13T11:01:37.104Z,40.43
2018-12-13T11:04:07.356Z,41.18
2018-12-13T11:06:35.908Z,39.20
2018-12-13T11:09:06.717Z,37.50
2018-12-13T11:11:37.806Z,36.45
2018-12-13T11:14:08.382Z,36.80
2018-12-13T11:16:41.666Z,36.40
2018-12-13T11:19:11.947Z,36.05
2018-12-13T11:21:43.218Z,35.88
2018-12-13T11:24:14.196Z,34.43
2018-12-13T11:26:45.868Z,34.33
2018-12-13T11:29:28.462Z,33.15
2018-12-13T11:31:57.026Z,31.85
2018-12-13T11:34:27.672Z,31.87
2018-12-13T11:37:01.631Z,29.20
2018-12-13T11:39:30.308Z,28.95
2018-12-13T11:42:00.361Z,29.98
2018-12-13T11:44:30.865Z,27.60
2018-12-13T11:47:00.187Z,27.17
2018-12-13T11:49:30.598Z,28.62
2018-12-13T11:52:02.119Z,28.75
2018-12-13T11:54:43.837Z,27.98
2018-12-13T11:57:17.389Z,28.05
2018-12-13T11:59:47.759Z,29.07
2018-12-13T12:02:23.727Z,29.32
2018-12-13T12:04:49.569Z,31.12
2018-12-13T12:07:18.335Z,29.55
2018-12-13T12:09:47.425Z,30.30
2018-12-13T12:12:20.838Z,29.35
2018-12-13T12:14:50.564Z,30.20
2018-12-13T12:17:20.207Z,30.40
2018-12-13T12:19:52.881Z,27.10
2018-12-13T12:22:23.386Z,30.80
2018-12-13T12:24:52.936Z,31.30
2018-12-13T12:27:23.496Z,32.63
2018-12-13T12:29:53.652Z,29.18
2018-12-13T12:32:24.773Z,29.30
2018-12-13T12:34:55.243Z,28.83
2018-12-13T12:37:27.131Z,30.77
2018-12-13T12:39:57.564Z,29.15
2018-12-13T12:42:30.469Z,29.42
2018-12-13T12:45:01.048Z,33.40
2018-12-13T12:47:30.481Z,32.20
2018-12-13T12:50:01.252Z,30.43
2018-12-13T12:52:31.603Z,30.15
2018-12-13T12:55:05.146Z,29.45
2018-12-13T12:57:36.820Z,29.90
2018-12-13T13:00:08.662Z,30.92
2018-12-13T13:02:40.769Z,31.05
2018-12-13T13:05:10.326Z,31.85
2018-12-13T13:07:40.819Z,31.90
2018-12-13T13:10:11.659Z,31.35
2018-12-13T13:12:41.992Z,31.40
2018-12-13T13:15:11.402Z,31.93
2018-12-13T13:17:42.257Z,32.15
2018-12-13T13:20:14.699Z,30.80
2018-12-13T13:22:44.297Z,32.80
2018-12-13T13:25:16.246Z,31.60
2018-12-13T13:27:48.946Z,31.60
2018-12-13T13:30:19.283Z,32.00
2018-12-13T13:32:51.453Z,30.23
2018-12-13T13:35:21.621Z,30.23
2018-12-13T13:37:51.137Z,29.92
2018-12-13T13:40:23.300Z,28.90
2018-12-13T13:42:54.147Z,30.43
2018-12-13T13:45:28.886Z,30.60
2018-12-13T13:47:59.693Z,30.37
2018-12-13T13:50:31.234Z,32.05
2018-12-13T13:53:01.859Z,32.00
2018-12-13T13:55:34.011Z,30.50
2018-12-13T13:58:04.805Z,31.62
2018-12-13T14:00:34.283Z,31.27
2018-12-13T14:03:05.951Z,32.42
2018-12-13T14:05:35.703Z,30.05
2018-12-13T14:08:05.854Z,30.40
2018-12-13T14:10:36.604Z,30.02
2018-12-13T14:13:09.217Z,29.45
2018-12-13T14:15:40.453Z,29.80
2018-12-13T14:18:13.402Z,28.55
2018-12-13T14:20:44.482Z,31.17
2018-12-13T14:23:15.540Z,31.23
2018-12-13T14:25:47.800Z,29.32
2018-12-13T14:28:17.977Z,30.60
2018-12-13T14:30:48.225Z,31.02
2018-12-13T14:33:17.399Z,30.02
2018-12-13T14:35:48.768Z,28.73
2018-12-13T14:38:19.641Z,29.05
2018-12-13T14:40:51.488Z,26.33
2018-12-13T14:43:21.404Z,26.97
2018-12-13T14:45:50.649Z,26.37
2018-12-13T14:48:23.530Z,26.85
2018-12-13T14:50:54.092Z,25.75
2018-12-13T14:53:22.833Z,27.35
2018-12-13T14:55:55.332Z,26.80
2018-12-13T14:58:28.782Z,25.12
2018-12-13T15:01:00.106Z,25.70
2018-12-13T15:03:30.376Z,25.62
2018-12-13T15:06:00.575Z,25.88
2018-12-13T15:08:31.339Z,25.90
2018-12-13T15:11:03.910Z,26.33
2018-12-13T15:13:40.430Z,27.22
2018-12-13T15:16:11.881Z,26.97
2018-12-13T15:18:41.485Z,26.35
2018-12-13T15:21:13.180Z,25.00
2018-12-13T15:23:43.738Z,25.40
2018-12-13T15:26:14.016Z,25.62
2018-12-13T15:28:42.678Z,25.80
2018-12-13T15:31:13.688Z,26.82
2018-12-13T15:33:44.349Z,27.80
2018-12-13T15:36:15.043Z,27.90
2018-12-13T15:38:44.393Z,28.23
2018-12-13T15:41:16.204Z,27.15
2018-12-13T15:43:51.220Z,26.30
2018-12-13T15:46:21.641Z,28.30
2018-12-13T15:48:51.517Z,30.17
2018-12-13T15:51:23.416Z,28.35
2018-12-13T15:53:54.224Z,29.20
2018-12-13T15:56:23.649Z,28.35
2018-12-13T15:58:54.344Z,28.20
2018-12-13T16:01:26.981Z,30.75
2018-12-13T16:03:58.468Z,27.85
2018-12-13T16:06:28.130Z,28.60
2018-12-13T16:08:59.521Z,30.10
2018-12-13T16:11:30.690Z,30.40
2018-12-13T16:14:03.471Z,28.60
2018-12-13T16:16:35.615Z,29.50
2018-12-13T16:19:08.079Z,30.02
2018-12-13T16:21:39.914Z,29.40
2018-12-13T16:24:11.410Z,30.97
2018-12-13T16:26:43.291Z,30.15
2018-12-13T16:29:14.493Z,30.05
2018-12-13T16:31:46.700Z,29.65
2018-12-13T16:34:17.167Z,30.65
2018-12-13T16:36:48.316Z,30.10
2018-12-13T16:39:22.799Z,29.55
2018-12-13T16:41:53.260Z,27.95
2018-12-13T16:44:27.664Z,30.68
2018-12-13T16:47:00.873Z,30.17
2018-12-13T16:49:31.919Z,29.57
2018-12-13T16:52:03.149Z,30.95
2018-12-13T16:54:33.847Z,27.55
2018-12-13T16:57:03.339Z,29.27
2018-12-13T16:59:33.495Z,28.25
2018-12-13T17:02:04.771Z,28.42
2018-12-13T17:04:35.764Z,27.42
2018-12-13T17:07:08.086Z,29.45
2018-12-13T17:09:38.971Z,26.70
2018-12-13T17:12:12.021Z,27.55
2018-12-13T17:14:43.309Z,27.10
2018-12-13T17:17:12.398Z,25.72
2018-12-13T17:19:41.364Z,25.37
2018-12-13T17:22:13.131Z,24.32
2018-12-13T17:24:42.280Z,24.80
2018-12-13T17:27:11.606Z,25.25
2018-12-13T17:29:41.311Z,22.75
2018-12-13T17:32:10.932Z,25.43
2018-12-13T17:34:40.201Z,23.83
2018-12-13T17:37:09.050Z,24.87
2018-12-13T17:39:37.881Z,25.32
2018-12-13T17:42:07.068Z,25.60
2018-12-13T17:44:36.748Z,24.72
2018-12-13T17:47:05.945Z,24.80
2018-12-13T17:49:36.346Z,25.35
2018-12-13T17:52:05.643Z,24.70
2018-12-13T17:54:35.151Z,26.23
2018-12-13T17:57:05.299Z,25.75
2018-12-13T17:59:34.014Z,25.30
2018-12-13T18:02:04.193Z,24.95
2018-12-13T18:04:34.061Z,25.37
2018-12-13T18:07:03.179Z,23.25
2018-12-13T18:09:33.235Z,24.15
2018-12-13T18:12:02.683Z,24.80
2018-12-13T18:14:31.797Z,24.77
2018-12-13T18:17:00.986Z,24.15
2018-12-13T18:19:29.706Z,24.15
2018-12-13T18:21:59.720Z,24.05
2018-12-13T18:24:30.766Z,23.98
2018-12-13T18:27:00.412Z,24.25
2018-12-13T18:29:29.090Z,23.62
2018-12-13T18:31:58.490Z,24.47
2018-12-13T18:34:29.168Z,24.63
2018-12-13T18:36:58.741Z,23.52
2018-12-13T18:39:27.840Z,22.82
2018-12-13T18:41:56.745Z,22.75
2018-12-13T18:44:26.382Z,21.25
2018-12-13T18:46:55.926Z,22.42
2018-12-13T18:49:24.748Z,20.85
2018-12-13T18:51:54.537Z,22.35
2018-12-13T18:54:23.059Z,24.25
2018-12-13T18:56:52.969Z,22.35
2018-12-13T18:59:21.689Z,22.93
2018-12-13T19:01:52.121Z,21.10
2018-12-13T19:04:21.061Z,20.85
2018-12-13T19:06:50.762Z,20.60
2018-12-13T19:09:20.659Z,19.55
2018-12-13T19:11:49.385Z,21.52
2018-12-13T19:14:19.220Z,20.82
2018-12-13T19:16:48.983Z,21.10
2018-12-13T19:19:18.397Z,20.70
2018-12-13T19:21:48.668Z,21.05
2018-12-13T19:24:17.861Z,22.45
2018-12-13T19:26:47.450Z,19.52
2018-12-13T19:29:16.332Z,21.00
2018-12-13T19:31:45.879Z,20.23
2018-12-13T19:34:16.198Z,20.10
2018-12-13T19:36:45.132Z,21.50
2018-12-13T19:39:17.162Z,20.70
2018-12-13T19:41:46.491Z,21.30
2018-12-13T19:44:15.074Z,22.05
2018-12-13T19:46:44.758Z,21.35
2018-12-13T19:49:14.645Z,21.60
2018-12-13T19:51:43.936Z,22.10
2018-12-13T19:54:14.435Z,20.43
2018-12-13T19:56:44.076Z,21.37
2018-12-13T19:59:13.517Z,19.92
2018-12-13T20:01:42.853Z,20.30
2018-12-13T20:04:13.622Z,21.68
2018-12-13T20:06:42.669Z,21.60
2018-12-13T20:09:12.430Z,21.73
2018-12-13T20:11:42.803Z,21.80
2018-12-13T20:14:13.077Z,21.97
2018-12-13T20:16:42.375Z,24.40
2018-12-13T20:19:12.412Z,23.73
2018-12-13T20:21:41.723Z,22.98
2018-12-13T20:24:11.502Z,23.75
2018-12-13T20:26:40.587Z,23.75
2018-12-13T20:29:09.903Z,22.48
2018-12-13T20:31:38.897Z,21.55
2018-12-13T20:34:09.123Z,23.40
2018-12-13T20:36:38.441Z,23.55
2018-12-13T20:39:09.058Z,22.35
2018-12-13T20:41:38.443Z,22.67
2018-12-13T20:44:07.951Z,22.87
2018-12-13T20:46:37.592Z,22.48
2018-12-13T20:49:07.108Z,24.10
2018-12-13T20:51:43.598Z,23.32
2018-12-13T20:54:13.701Z,23.27
2018-12-13T20:56:42.593Z,22.77
2018-12-13T20:59:11.739Z,23.50
2018-12-13T21:01:40.948Z,22.67
2018-12-13T21:04:10.462Z,21.45
2018-12-13T21:06:40.073Z,22.00
2018-12-13T21:09:08.817Z,21.17
2018-12-13T21:11:38.178Z,20.65
2018-12-13T21:14:06.854Z,20.35
2018-12-13T21:16:35.656Z,20.97
2018-12-13T21:19:05.239Z,20.00
2018-12-13T21:21:34.376Z,19.70
2018-12-13T21:24:03.853Z,20.15
2018-12-13T21:26:32.548Z,18.60
2018-12-13T21:29:01.360Z,19.20
2018-12-13T21:31:31.153Z,20.75
2018-12-13T21:34:00.289Z,19.35
2018-12-13T21:36:30.449Z,19.98
2018-12-13T21:39:00.148Z,18.98
2018-12-13T21:41:30.578Z,20.05
2018-12-13T21:43:59.953Z,17.60
2018-12-13T21:46:30.358Z,18.48
2018-12-13T21:49:00.511Z,17.50
2018-12-13T21:51:30.302Z,18.12
2018-12-13T21:53:59.298Z,19.17
2018-12-13T21:56:28.287Z,18.00
2018-12-13T21:59:03.520Z,18.67
2018-12-13T22:01:28.970Z,19.10
2018-12-13T22:03:58.540Z,17.95
2018-12-13T22:06:27.973Z,16.97
2018-12-13T22:08:57.630Z,16.87
2018-12-13T22:11:26.470Z,16.67
2018-12-13T22:13:55.199Z,18.12
2018-12-13T22:16:25.646Z,17.25
2018-12-13T22:18:54.959Z,17.75
2018-12-13T22:21:24.002Z,16.40
2018-12-13T22:23:53.150Z,18.25
2018-12-13T22:26:22.268Z,17.27
2018-12-13T22:28:52.615Z,16.87
2018-12-13T22:31:22.399Z,17.02
2018-12-13T22:33:51.496Z,17.48
2018-12-13T22:36:22.320Z,16.12
2018-12-13T22:38:52.032Z,18.37
2018-12-13T22:41:26.379Z,16.60
2018-12-13T22:43:53.827Z,18.57
2018-12-13T22:46:23.980Z,19.35
2018-12-13T22:48:53.991Z,19.45
2018-12-13T22:51:22.833Z,18.70
2018-12-13T22:53:54.059Z,19.17
2018-12-13T22:56:23.419Z,19.40
2018-12-13T22:58:53.589Z,19.27
2018-12-13T23:01:23.636Z,19.67
2018-12-13T23:03:53.904Z,19.57
2018-12-13T23:06:24.109Z,19.05
2018-12-13T23:08:53.960Z,19.10
2018-12-13T23:11:23.226Z,18.77
2018-12-13T23:13:53.089Z,17.95
2018-12-13T23:16:23.108Z,19.35
2018-12-13T23:18:53.541Z,17.87
2018-12-13T23:21:23.538Z,18.48
2018-12-13T23:23:53.210Z,18.77
2018-12-13T23:26:22.446Z,18.07
2018-12-13T23:28:52.614Z,19.45
2018-12-13T23:31:21.495Z,18.37
2018-12-13T23:33:51.471Z,18.12
2018-12-13T23:36:21.028Z,18.95
2018-12-13T23:38:50.164Z,20.37
2018-12-13T23:41:21.835Z,17.15
2018-12-13T23:43:51.948Z,17.77
2018-12-13T23:46:21.618Z,20.15
2018-12-13T23:48:51.841Z,19.90
2018-12-13T23:51:21.726Z,20.72
2018-12-13T23:53:52.143Z,21.85
2018-12-13T23:56:21.758Z,22.65
2018-12-13T23:58:51.963Z,22.87
